createdAt,value
2022-09-11T00:02:02.323Z,7.90
2022-09-11T00:04:28.737Z,9.65
2022-09-11T00:06:55.079Z,3.83
2022-09-11T00:09:21.783Z,4.30
2022-09-11T00:11:48.270Z,9.32
2022-09-11T00:14:14.895Z,2.75
2022-09-11T00:16:44.617Z,3.17
2022-09-11T00:19:13.791Z,5.07
2022-09-11T00:21:40.511Z,9.88
2022-09-11T00:24:07.779Z,3.03
2022-09-11T00:26:34.447Z,9.73
2022-09-11T00:29:00.818Z,10.00
2022-09-11T00:31:29.540Z,4.30
2022-09-11T00:33:56.660Z,5.10
2022-09-11T00:36:26.291Z,5.57
2022-09-11T00:38:53.222Z,3.88
2022-09-11T00:41:24.577Z,2.75
2022-09-11T00:44:12.287Z,2.97
2022-09-11T00:46:51.556Z,3.47
2022-09-11T00:49:31.699Z,3.45
2022-09-11T00:52:06.652Z,3.63
2022-09-11T00:54:37.601Z,4.35
2022-09-11T00:57:07.955Z,3.17
2022-09-11T00:59:34.979Z,4.78
2022-09-11T01:02:02.132Z,4.03
2022-09-11T01:04:28.860Z,2.72
2022-09-11T01:06:57.858Z,3.53
2022-09-11T01:09:26.979Z,5.63
2022-09-11T01:12:05.326Z,6.97
2022-09-11T01:14:45.279Z,5.97
2022-09-11T01:17:31.482Z,3.53
2022-09-11T01:20:19.110Z,2.65
2022-09-11T01:23:04.458Z,3.67
2022-09-11T01:25:54.617Z,2.95
2022-09-11T01:28:25.974Z,5.57
2022-09-11T01:30:57.473Z,3.50
2022-09-11T01:33:36.103Z,3.63
2022-09-11T01:36:10.633Z,4.13
2022-09-11T01:38:44.177Z,2.97
2022-09-11T01:41:19.277Z,3.50
2022-09-11T01:43:52.085Z,3.13
2022-09-11T01:46:22.146Z,4.75
2022-09-11T01:48:55.953Z,5.03
2022-09-11T01:51:27.907Z,3.78
2022-09-11T01:53:57.078Z,3.70
2022-09-11T01:56:32.926Z,8.10
2022-09-11T01:59:05.406Z,4.90
2022-09-11T02:01:38.703Z,4.90
2022-09-11T02:04:10.538Z,4.00
2022-09-11T02:06:46.934Z,4.28
2022-09-11T02:09:16.702Z,6.88
2022-09-11T02:11:47.014Z,5.03
2022-09-11T02:14:23.017Z,6.35
2022-09-11T02:16:52.549Z,5.93
2022-09-11T02:19:24.463Z,4.72
2022-09-11T02:21:50.898Z,4.55
2022-09-11T02:24:18.874Z,6.13
2022-09-11T02:26:53.785Z,6.40
2022-09-11T02:29:20.413Z,7.65
2022-09-11T02:31:48.180Z,5.05
2022-09-11T02:34:15.473Z,6.00
2022-09-11T02:37:04.625Z,4.35
2022-09-11T02:39:46.274Z,5.75
2022-09-11T02:42:50.549Z,5.28
2022-09-11T02:45:23.374Z,5.18
2022-09-11T02:47:56.270Z,10.80
2022-09-11T02:50:41.697Z,4.40
2022-09-11T02:53:33.331Z,7.57
2022-09-11T02:56:12.351Z,6.07
2022-09-11T02:58:54.777Z,5.28
2022-09-11T03:01:22.669Z,3.95
2022-09-11T03:03:49.259Z,5.78
2022-09-11T03:06:19.002Z,4.57
2022-09-11T03:08:45.645Z,5.07
2022-09-11T03:11:12.082Z,4.00
2022-09-11T03:13:38.822Z,7.72
2022-09-11T03:16:05.801Z,15.93
2022-09-11T03:18:32.485Z,4.68
2022-09-11T03:20:58.951Z,4.18
2022-09-11T03:23:25.392Z,5.18
2022-09-11T03:25:51.755Z,4.43
2022-09-11T03:28:18.687Z,3.65
2022-09-11T03:30:45.044Z,3.15
2022-09-11T03:33:11.418Z,3.70
2022-09-11T03:35:37.890Z,4.30
2022-09-11T03:38:04.233Z,4.32
2022-09-11T03:40:30.558Z,6.25
2022-09-11T03:42:57.207Z,4.15
2022-09-11T03:45:23.945Z,3.58
2022-09-11T03:47:50.665Z,3.40
2022-09-11T03:50:17.189Z,4.18
2022-09-11T03:52:43.544Z,4.07
2022-09-11T03:55:10.058Z,3.05
2022-09-11T03:57:36.667Z,5.47
2022-09-11T04:00:04.297Z,3.97
2022-09-11T04:02:30.653Z,5.95
2022-09-11T04:04:57.295Z,4.30
2022-09-11T04:07:24.393Z,2.90
2022-09-11T04:09:51.055Z,7.13
2022-09-11T04:12:17.475Z,3.38
2022-09-11T04:14:43.874Z,2.85
2022-09-11T04:17:10.544Z,3.42
2022-09-11T04:19:36.861Z,4.25
2022-09-11T04:22:03.745Z,3.22
2022-09-11T04:24:30.177Z,4.70
2022-09-11T04:27:00.598Z,5.53
2022-09-11T04:29:28.422Z,2.60
2022-09-11T04:31:54.892Z,3.70
2022-09-11T04:34:21.533Z,5.45
2022-09-11T04:36:48.485Z,9.75
2022-09-11T04:39:15.367Z,6.28
2022-09-11T04:41:41.704Z,5.15
2022-09-11T04:44:08.272Z,6.03
2022-09-11T04:46:34.925Z,5.13
2022-09-11T04:49:01.323Z,7.85
2022-09-11T04:51:37.699Z,8.43
2022-09-11T04:54:05.063Z,9.70
2022-09-11T04:56:33.436Z,7.32
2022-09-11T04:59:02.802Z,7.07
2022-09-11T05:01:31.110Z,7.85
2022-09-11T05:03:57.899Z,6.78
2022-09-11T05:06:24.274Z,8.32
2022-09-11T05:08:50.801Z,8.18
2022-09-11T05:11:19.224Z,4.32
2022-09-11T05:13:45.748Z,4.55
2022-09-11T05:16:14.725Z,7.28
2022-09-11T05:18:43.775Z,5.00
2022-09-11T05:21:13.148Z,9.10
2022-09-11T05:23:40.322Z,7.22
2022-09-11T05:26:12.991Z,5.95
2022-09-11T05:28:39.396Z,6.68
2022-09-11T05:31:12.272Z,7.50
2022-09-11T05:33:39.332Z,10.00
2022-09-11T05:36:06.172Z,6.30
2022-09-11T05:38:34.904Z,11.63
2022-09-11T05:41:01.242Z,8.75
2022-09-11T05:43:27.584Z,8.88
2022-09-11T05:45:58.636Z,8.82
2022-09-11T05:48:28.749Z,8.70
2022-09-11T05:50:57.639Z,8.55
2022-09-11T05:53:24.071Z,13.05
2022-09-11T05:55:50.695Z,10.18
2022-09-11T05:58:17.755Z,10.20
2022-09-11T06:00:45.500Z,13.68
2022-09-11T06:03:15.516Z,9.05
2022-09-11T06:05:42.872Z,8.80
2022-09-11T06:08:10.416Z,9.68
2022-09-11T06:10:37.774Z,15.15
2022-09-11T06:13:04.526Z,11.15
2022-09-11T06:15:46.181Z,8.50
2022-09-11T06:18:14.432Z,14.35
2022-09-11T06:20:40.889Z,14.75
2022-09-11T06:23:09.588Z,10.63
2022-09-11T06:25:36.564Z,11.85
2022-09-11T06:28:03.627Z,12.15
2022-09-11T06:30:30.056Z,10.43
2022-09-11T06:32:56.509Z,10.10
2022-09-11T06:35:23.389Z,10.23
2022-09-11T06:37:49.898Z,9.25
2022-09-11T06:40:16.291Z,13.68
2022-09-11T06:42:42.958Z,16.23
2022-09-11T06:45:09.822Z,11.63
2022-09-11T06:47:36.215Z,9.25
2022-09-11T06:50:02.591Z,12.57
2022-09-11T06:52:29.292Z,11.02
2022-09-11T06:54:56.073Z,8.95
2022-09-11T06:57:22.435Z,9.80
2022-09-11T06:59:48.818Z,9.85
2022-09-11T07:02:15.587Z,12.90
2022-09-11T07:04:42.310Z,10.90
2022-09-11T07:07:08.631Z,12.73
2022-09-11T07:09:34.995Z,10.57
2022-09-11T07:12:01.640Z,12.25
2022-09-11T07:14:28.032Z,10.57
2022-09-11T07:16:54.754Z,8.00
2022-09-11T07:19:22.791Z,10.68
2022-09-11T07:21:49.152Z,7.75
2022-09-11T07:24:15.543Z,11.48
2022-09-11T07:26:42.020Z,17.20
2022-09-11T07:29:08.411Z,10.43
2022-09-11T07:31:38.081Z,10.98
2022-09-11T07:34:04.521Z,11.55
2022-09-11T07:36:33.465Z,10.05
2022-09-11T07:39:00.273Z,11.15
2022-09-11T07:41:27.760Z,10.10
2022-09-11T07:43:56.706Z,9.30
2022-09-11T07:46:23.941Z,8.32
2022-09-11T07:48:50.754Z,7.22
2022-09-11T07:51:18.483Z,12.20
2022-09-11T07:53:47.321Z,11.02
2022-09-11T07:56:16.879Z,15.85
2022-09-11T07:58:44.587Z,7.07
2022-09-11T08:01:16.366Z,10.48
2022-09-11T08:03:43.297Z,7.60
2022-09-11T08:06:20.090Z,7.90
2022-09-11T08:08:52.520Z,7.20
2022-09-11T08:11:19.259Z,6.68
2022-09-11T08:13:50.948Z,6.80
2022-09-11T08:16:18.928Z,6.72
2022-09-11T08:18:45.967Z,6.25
2022-09-11T08:21:13.186Z,9.45
2022-09-11T08:23:42.341Z,6.55
2022-09-11T08:26:15.818Z,9.18
2022-09-11T08:28:43.393Z,13.00
2022-09-11T08:31:11.035Z,7.38
2022-09-11T08:33:37.478Z,12.35
2022-09-11T08:36:09.061Z,9.88
2022-09-11T08:38:36.845Z,8.57
2022-09-11T08:41:36.831Z,8.88
2022-09-11T08:44:07.093Z,7.95
2022-09-11T08:46:39.811Z,8.63
2022-09-11T08:49:26.150Z,9.73
2022-09-11T08:52:01.066Z,7.47
2022-09-11T08:54:31.698Z,5.57
2022-09-11T08:57:09.654Z,6.13
2022-09-11T09:00:01.390Z,6.97
2022-09-11T09:02:44.471Z,8.90
2022-09-11T09:05:33.627Z,7.07
2022-09-11T09:08:25.555Z,13.20
2022-09-11T09:10:56.953Z,5.95
2022-09-11T09:13:40.383Z,11.20
2022-09-11T09:16:55.428Z,4.90
2022-09-11T09:19:33.640Z,5.30
2022-09-11T09:22:35.140Z,9.63
2022-09-11T09:25:07.097Z,10.82
2022-09-11T09:27:45.628Z,11.48
2022-09-11T09:30:21.212Z,6.20
2022-09-11T09:33:25.760Z,6.30
2022-09-11T09:35:52.076Z,10.45
2022-09-11T09:38:26.442Z,4.15
2022-09-11T09:41:26.702Z,3.42
2022-09-11T09:44:22.898Z,4.13
2022-09-11T09:46:53.468Z,9.80
2022-09-11T09:49:25.348Z,4.10
2022-09-11T09:51:55.271Z,5.75
2022-09-11T09:54:25.085Z,9.55
2022-09-11T09:57:00.309Z,6.30
2022-09-11T09:59:34.169Z,4.53
2022-09-11T10:02:00.661Z,5.55
2022-09-11T10:04:28.574Z,4.88
2022-09-11T10:07:06.340Z,6.43
2022-09-11T10:09:33.391Z,6.63
2022-09-11T10:12:12.994Z,5.38
2022-09-11T10:14:52.227Z,5.53
2022-09-11T10:17:28.115Z,6.85
2022-09-11T10:19:56.345Z,5.32
2022-09-11T10:22:25.483Z,10.45
2022-09-11T10:25:05.937Z,4.85
2022-09-11T10:27:39.037Z,4.72
2022-09-11T10:30:06.329Z,8.32
2022-09-11T10:32:38.114Z,4.57
2022-09-11T10:35:09.555Z,7.22
2022-09-11T10:37:35.932Z,8.77
2022-09-11T10:40:20.285Z,4.18
2022-09-11T10:42:47.377Z,4.75
2022-09-11T10:45:18.809Z,5.65
2022-09-11T10:47:45.211Z,5.20
2022-09-11T10:50:17.703Z,4.60
2022-09-11T10:53:12.957Z,7.57
2022-09-11T10:55:45.073Z,4.65
2022-09-11T10:58:22.290Z,4.95
2022-09-11T11:00:49.750Z,6.18
2022-09-11T11:03:21.057Z,6.53
2022-09-11T11:06:21.500Z,5.25
2022-09-11T11:09:11.411Z,5.35
2022-09-11T11:12:23.003Z,6.28
2022-09-11T11:14:55.610Z,6.47
2022-09-11T11:17:51.299Z,3.67
2022-09-11T11:20:25.162Z,3.65
2022-09-11T11:23:16.399Z,4.45
2022-09-11T11:26:23.645Z,3.88
2022-09-11T11:29:06.788Z,6.03
2022-09-11T11:31:55.781Z,3.78
2022-09-11T11:34:49.900Z,2.53
2022-09-11T11:37:32.228Z,3.38
2022-09-11T11:40:21.722Z,3.08
2022-09-11T11:43:05.220Z,3.75
2022-09-11T11:45:38.389Z,4.45
2022-09-11T11:48:22.903Z,3.80
2022-09-11T11:50:54.944Z,2.30
2022-09-11T11:53:29.689Z,1.98
2022-09-11T11:56:00.629Z,3.95
2022-09-11T11:58:49.901Z,2.65
2022-09-11T12:01:29.500Z,2.20
2022-09-11T12:04:21.668Z,2.90
2022-09-11T12:06:48.215Z,2.78
2022-09-11T12:09:17.658Z,2.03
2022-09-11T12:11:48.396Z,4.93
2022-09-11T12:14:27.679Z,2.38
2022-09-11T12:16:56.370Z,5.45
2022-09-11T12:19:24.721Z,2.90
2022-09-11T12:21:54.343Z,3.00
2022-09-11T12:24:23.452Z,3.67
2022-09-11T12:27:27.862Z,2.47
2022-09-11T12:29:57.503Z,2.53
2022-09-11T12:32:27.296Z,4.00
2022-09-11T12:35:12.675Z,1.80
2022-09-11T12:37:39.970Z,3.40
2022-09-11T12:40:16.126Z,3.55
2022-09-11T12:42:42.693Z,2.40
2022-09-11T12:45:33.783Z,1.92
2022-09-11T12:48:06.382Z,5.03
2022-09-11T12:50:33.335Z,2.72
2022-09-11T12:52:59.801Z,3.85
2022-09-11T12:55:36.004Z,4.35
2022-09-11T12:58:05.859Z,2.55
2022-09-11T13:00:42.717Z,6.50
2022-09-11T13:03:20.353Z,2.72
2022-09-11T13:05:59.949Z,2.40
2022-09-11T13:08:30.130Z,1.40
2022-09-11T13:11:34.470Z,1.67
2022-09-11T13:14:01.083Z,1.40
2022-09-11T13:16:29.772Z,1.55
2022-09-11T13:19:08.072Z,1.00
2022-09-11T13:21:38.627Z,1.50
2022-09-11T13:24:29.028Z,1.83
2022-09-11T13:27:08.563Z,1.27
2022-09-11T13:29:38.133Z,1.25
2022-09-11T13:32:12.988Z,2.38
2022-09-11T13:34:47.465Z,1.33
2022-09-11T13:37:31.348Z,1.20
2022-09-11T13:39:59.642Z,1.90
2022-09-11T13:42:26.499Z,1.75
2022-09-11T13:44:56.681Z,1.52
2022-09-11T13:47:28.461Z,1.33
2022-09-11T13:50:04.799Z,4.30
2022-09-11T13:52:35.408Z,1.40
2022-09-11T13:55:19.326Z,2.28
2022-09-11T13:57:57.088Z,2.13
2022-09-11T14:00:45.512Z,2.97
2022-09-11T14:03:27.691Z,2.53
2022-09-11T14:05:56.798Z,4.50
2022-09-11T14:08:42.287Z,2.70
2022-09-11T14:11:13.784Z,2.30
2022-09-11T14:13:50.983Z,2.42
2022-09-11T14:16:30.564Z,4.43
2022-09-11T14:19:14.113Z,2.53
2022-09-11T14:21:43.615Z,2.58
2022-09-11T14:24:35.424Z,4.38
2022-09-11T14:27:04.599Z,3.45
2022-09-11T14:29:33.594Z,4.93
2022-09-11T14:32:29.669Z,2.15
2022-09-11T14:34:56.080Z,4.57
2022-09-11T14:37:24.797Z,2.15
2022-09-11T14:40:05.198Z,3.25
2022-09-11T14:42:33.450Z,7.57
2022-09-11T14:45:07.713Z,3.70
2022-09-11T14:47:34.085Z,1.80
2022-09-11T14:50:00.691Z,2.15
2022-09-11T14:52:28.965Z,2.10
2022-09-11T14:54:56.438Z,2.58
2022-09-11T14:57:25.298Z,4.22
2022-09-11T14:59:52.803Z,1.77
2022-09-11T15:02:21.654Z,2.97
2022-09-11T15:04:48.853Z,3.10
2022-09-11T15:07:16.989Z,1.90
2022-09-11T15:09:43.950Z,2.55
2022-09-11T15:12:12.077Z,2.35
2022-09-11T15:14:55.512Z,1.63
2022-09-11T15:17:23.244Z,3.45
2022-09-11T15:19:49.633Z,1.88
2022-09-11T15:22:17.376Z,1.58
2022-09-11T15:24:43.777Z,3.03
2022-09-11T15:27:10.268Z,5.43
2022-09-11T15:29:36.753Z,3.92
2022-09-11T15:32:03.830Z,2.25
2022-09-11T15:34:30.372Z,4.80
2022-09-11T15:36:56.995Z,5.80
2022-09-11T15:39:23.311Z,4.75
2022-09-11T15:41:50.278Z,2.78
2022-09-11T15:44:22.376Z,4.15
2022-09-11T15:46:49.670Z,2.85
2022-09-11T15:49:17.916Z,3.67
2022-09-11T15:51:44.228Z,4.10
2022-09-11T15:54:11.776Z,5.18
2022-09-11T15:56:38.331Z,2.35
2022-09-11T15:59:05.123Z,4.90
2022-09-11T16:01:34.442Z,2.88
2022-09-11T16:04:03.237Z,3.70
2022-09-11T16:06:31.768Z,2.47
2022-09-11T16:09:06.428Z,5.13
2022-09-11T16:11:33.910Z,2.83
2022-09-11T16:14:00.650Z,4.80
2022-09-11T16:16:27.159Z,3.10
2022-09-11T16:18:54.790Z,5.63
2022-09-11T16:21:22.088Z,3.25
2022-09-11T16:23:53.627Z,6.07
2022-09-11T16:26:22.762Z,2.92
2022-09-11T16:28:49.106Z,3.25
2022-09-11T16:31:15.659Z,7.07
2022-09-11T16:33:44.260Z,6.03
2022-09-11T16:36:17.141Z,2.78
2022-09-11T16:38:44.460Z,6.88
2022-09-11T16:41:21.744Z,4.20
2022-09-11T16:43:50.696Z,3.35
2022-09-11T16:46:19.851Z,5.78
2022-09-11T16:48:50.622Z,4.35
2022-09-11T16:51:20.815Z,4.35
2022-09-11T16:53:47.822Z,4.30
2022-09-11T16:56:22.048Z,4.68
2022-09-11T16:58:48.854Z,3.33
2022-09-11T17:01:20.790Z,4.20
2022-09-11T17:03:50.622Z,3.28
2022-09-11T17:06:18.296Z,4.05
2022-09-11T17:08:44.769Z,3.45
2022-09-11T17:11:16.710Z,2.88
2022-09-11T17:13:43.633Z,2.78
2022-09-11T17:16:16.204Z,4.57
2022-09-11T17:18:47.245Z,3.38
2022-09-11T17:21:13.942Z,9.90
2022-09-11T17:23:40.564Z,4.80
2022-09-11T17:26:11.632Z,4.38
2022-09-11T17:28:39.179Z,3.95
2022-09-11T17:31:07.409Z,5.13
2022-09-11T17:33:35.475Z,4.65
2022-09-11T17:36:06.585Z,6.20
2022-09-11T17:38:34.018Z,7.72
2022-09-11T17:41:03.757Z,5.95
2022-09-11T17:43:30.749Z,7.35
2022-09-11T17:46:08.522Z,4.57
2022-09-11T17:48:35.177Z,5.43
2022-09-11T17:51:17.473Z,5.53
2022-09-11T17:53:46.345Z,4.78
2022-09-11T17:56:19.385Z,3.30
2022-09-11T17:58:50.288Z,4.10
2022-09-11T18:01:17.255Z,5.43
2022-09-11T18:03:44.344Z,6.80
2022-09-11T18:06:32.635Z,4.07
2022-09-11T18:09:00.148Z,6.78
2022-09-11T18:11:26.478Z,4.80
2022-09-11T18:13:52.865Z,5.80
2022-09-11T18:16:19.401Z,9.48
2022-09-11T18:18:45.743Z,7.50
2022-09-11T18:21:12.475Z,6.43
2022-09-11T18:23:41.134Z,5.68
2022-09-11T18:26:09.775Z,5.72
2022-09-11T18:28:37.005Z,6.15
2022-09-11T18:31:05.068Z,9.55
2022-09-11T18:33:33.164Z,7.82
2022-09-11T18:36:04.897Z,6.13
2022-09-11T18:38:33.110Z,5.47
2022-09-11T18:41:00.255Z,11.70
2022-09-11T18:43:27.666Z,8.57
2022-09-11T18:45:54.881Z,4.50
2022-09-11T18:48:21.465Z,4.70
2022-09-11T18:50:48.452Z,4.97
2022-09-11T18:53:14.945Z,6.85
2022-09-11T18:55:41.603Z,10.32
2022-09-11T18:58:07.971Z,8.82
2022-09-11T19:00:34.407Z,7.43
2022-09-11T19:03:00.791Z,7.57
2022-09-11T19:05:27.199Z,12.15
2022-09-11T19:07:53.497Z,4.90
2022-09-11T19:10:19.865Z,4.20
2022-09-11T19:12:48.248Z,5.53
2022-09-11T19:15:14.888Z,5.95
2022-09-11T19:17:42.103Z,8.07
2022-09-11T19:20:09.315Z,4.20
2022-09-11T19:22:36.202Z,5.47
2022-09-11T19:25:03.343Z,7.75
2022-09-11T19:27:29.921Z,7.72
2022-09-11T19:29:56.317Z,5.70
2022-09-11T19:32:22.652Z,5.38
2022-09-11T19:34:49.736Z,6.72
2022-09-11T19:37:17.291Z,6.72
2022-09-11T19:39:43.693Z,5.28
2022-09-11T19:42:10.080Z,9.02
2022-09-11T19:44:36.468Z,7.13
2022-09-11T19:47:03.388Z,5.78
2022-09-11T19:49:29.862Z,4.93
2022-09-11T19:51:56.737Z,7.57
2022-09-11T19:54:23.508Z,5.40
2022-09-11T19:56:50.167Z,15.55
2022-09-11T19:59:16.887Z,6.03
2022-09-11T20:01:43.684Z,4.15
2022-09-11T20:04:10.565Z,5.55
2022-09-11T20:06:37.133Z,7.80
2022-09-11T20:09:29.873Z,6.65
2022-09-11T20:11:51.876Z,6.70
2022-09-11T20:14:18.547Z,8.95
2022-09-11T20:16:44.962Z,6.22
2022-09-11T20:19:11.385Z,8.40
2022-09-11T20:21:38.528Z,5.75
2022-09-11T20:24:05.796Z,6.57
2022-09-11T20:26:32.374Z,10.18
2022-09-11T20:29:03.270Z,6.32
2022-09-11T20:31:32.338Z,9.48
2022-09-11T20:34:00.748Z,7.28
2022-09-11T20:36:27.820Z,7.82
2022-09-11T20:38:55.372Z,8.63
2022-09-11T20:41:23.295Z,10.00
2022-09-11T20:43:50.019Z,10.82
2022-09-11T20:46:16.436Z,14.35
2022-09-11T20:48:43.360Z,7.38
2022-09-11T20:51:12.983Z,9.65
2022-09-11T20:53:40.620Z,10.20
2022-09-11T20:56:11.396Z,6.97
2022-09-11T20:58:38.567Z,6.45
2022-09-11T21:01:06.716Z,6.60
2022-09-11T21:03:34.019Z,9.40
2022-09-11T21:06:08.220Z,7.57
2022-09-11T21:08:34.948Z,8.25
2022-09-11T21:11:05.245Z,9.38
2022-09-11T21:13:38.617Z,9.02
2022-09-11T21:16:12.870Z,6.25
2022-09-11T21:18:40.829Z,8.43
2022-09-11T21:21:07.395Z,9.35
2022-09-11T21:23:34.038Z,10.55
2022-09-11T21:26:00.951Z,8.93
2022-09-11T21:28:27.282Z,8.68
2022-09-11T21:30:54.020Z,9.35
2022-09-11T21:33:20.498Z,10.38
2022-09-11T21:35:50.932Z,9.13
2022-09-11T21:38:17.587Z,10.25
2022-09-11T21:40:43.897Z,10.27
2022-09-11T21:43:10.349Z,9.55
2022-09-11T21:45:36.701Z,8.57
2022-09-11T21:48:03.516Z,8.63
2022-09-11T21:50:29.919Z,10.43
2022-09-11T21:52:56.295Z,7.75
2022-09-11T21:55:22.820Z,7.63
2022-09-11T21:57:49.480Z,9.35
2022-09-11T22:00:15.859Z,9.98
2022-09-11T22:02:42.340Z,7.97
2022-09-11T22:05:08.880Z,7.25
2022-09-11T22:07:35.341Z,8.98
2022-09-11T22:10:02.128Z,9.32
2022-09-11T22:12:28.465Z,8.18
2022-09-11T22:14:55.004Z,9.23
2022-09-11T22:20:49.606Z,8.90
2022-09-11T22:23:18.468Z,8.38
2022-09-11T22:25:45.674Z,8.52
2022-09-11T22:28:12.101Z,11.63
2022-09-11T22:30:42.717Z,7.35
2022-09-11T22:33:09.649Z,8.65
2022-09-11T22:35:36.537Z,8.07
2022-09-11T22:38:03.192Z,11.52
2022-09-11T22:40:29.829Z,10.25
2022-09-11T22:42:56.197Z,6.30
2022-09-11T22:45:22.543Z,9.93
2022-09-11T22:47:49.039Z,7.60
2022-09-11T22:50:15.411Z,10.18
2022-09-11T22:59:35.461Z,11.80
2022-09-11T23:02:01.937Z,6.55
2022-09-11T23:04:28.294Z,5.70
2022-09-11T23:10:42.459Z,7.15
2022-09-11T23:16:51.430Z,7.68
2022-09-11T23:29:36.323Z,8.30
2022-09-11T23:32:03.043Z,5.55
2022-09-11T23:34:29.397Z,6.80
2022-09-11T23:36:55.923Z,6.93
2022-09-11T23:39:22.306Z,7.57
2022-09-11T23:41:48.807Z,6.65
2022-09-11T23:44:15.335Z,6.53
2022-09-11T23:46:41.680Z,7.72
2022-09-11T23:49:08.352Z,7.00
2022-09-11T23:51:35.018Z,8.05
2022-09-11T23:54:01.414Z,7.07
2022-09-11T23:56:28.092Z,9.13
2022-09-11T23:58:57.230Z,7.65
